Time;durP1;ratioP1;P1;durP2;ratioP2;P2;SDS_P1;SDS_P2;PMS_P1;PMS_P2;Temp;Humidity;BMP_temperature;BMP_pressure;BME280_temperature;BME280_humidity;BME280_pressure;Samples;Min_cycle;Max_cycle;Signal;HPM_P1;HPM_P2
2022/10/23 00:00:59;;;;;;;41.65;24.95;;;13.50;99.90;;;;;;5055901;28;20025;-65
2022/10/23 00:03:25;;;;;;;37.50;23.58;;;13.60;99.90;;;;;;5056024;28;20155;-65
2022/10/23 00:05:51;;;;;;;40.78;23.02;;;13.50;99.90;;;;;;5056070;28;20056;-65
2022/10/23 00:08:17;;;;;;;40.50;22.27;;;13.60;99.90;;;;;;5055910;28;20094;-65
2022/10/23 00:10:44;;;;;;;36.17;21.63;;;13.50;99.90;;;;;;5055929;28;20040;-65
2022/10/23 00:13:10;;;;;;;34.63;20.00;;;13.50;99.90;;;;;;5055728;28;20029;-65
2022/10/23 00:15:36;;;;;;;31.98;19.73;;;13.50;99.90;;;;;;5055818;28;20521;-65
2022/10/23 00:18:03;;;;;;;31.88;19.15;;;13.50;99.90;;;;;;5055647;28;20024;-65
2022/10/23 00:20:29;;;;;;;39.13;19.35;;;13.30;99.90;;;;;;5055701;28;20033;-65
2022/10/23 00:22:55;;;;;;;35.60;19.17;;;13.30;99.90;;;;;;5055507;28;20032;-65
2022/10/23 00:25:21;;;;;;;33.95;21.35;;;13.40;99.90;;;;;;5055641;28;20029;-65
2022/10/23 00:27:46;;;;;;;34.35;21.55;;;13.40;99.90;;;;;;5055476;28;20415;-65
2022/10/23 00:30:13;;;;;;;35.97;20.73;;;13.30;99.90;;;;;;5055518;28;20029;-65
2022/10/23 00:32:39;;;;;;;36.50;21.58;;;13.30;99.90;;;;;;5055230;28;20029;-65
2022/10/23 00:35:05;;;;;;;33.80;21.30;;;13.30;99.90;;;;;;5055528;28;20147;-65
2022/10/23 00:37:31;;;;;;;35.65;21.80;;;13.40;99.90;;;;;;5055243;28;20086;-65
2022/10/23 00:39:57;;;;;;;38.35;21.52;;;13.50;99.90;;;;;;5055115;28;20021;-65
2022/10/23 00:42:23;;;;;;;43.28;25.02;;;13.40;99.90;;;;;;5053557;28;20043;-65
2022/10/23 00:44:49;;;;;;;40.72;23.88;;;13.40;99.90;;;;;;5055426;28;20025;-65
2022/10/23 00:47:16;;;;;;;41.95;25.02;;;13.40;99.90;;;;;;5053921;28;20047;-65
2022/10/23 00:49:42;;;;;;;40.08;24.27;;;13.30;99.90;;;;;;5055195;28;20025;-65
2022/10/23 00:52:10;;;;;;;35.45;22.50;;;13.30;99.90;;;;;;5055097;28;20390;-65
2022/10/23 00:54:39;;;;;;;42.45;24.92;;;13.30;99.90;;;;;;5053926;28;20111;-65
2022/10/23 00:57:08;;;;;;;42.97;24.67;;;13.20;99.90;;;;;;5053500;28;20470;-65
2022/10/23 00:59:34;;;;;;;42.30;27.58;;;13.30;99.90;;;;;;5055024;28;20032;-65
2022/10/23 01:02:00;;;;;;;59.13;32.15;;;13.30;99.90;;;;;;5054954;28;20029;-65
2022/10/23 01:04:27;;;;;;;58.33;32.80;;;13.40;99.90;;;;;;5054950;28;20194;-65
2022/10/23 01:07:14;;;;;;;61.15;32.40;;;13.40;99.90;;;;;;5054793;28;20367;-65
2022/10/23 01:09:46;;;;;;;56.22;32.03;;;13.40;99.90;;;;;;5053388;28;20441;-65
2022/10/23 01:12:30;;;;;;;52.00;31.25;;;13.40;99.90;;;;;;5053546;28;20033;-65
2022/10/23 01:15:14;;;;;;;55.38;30.35;;;13.30;99.90;;;;;;5053436;28;20494;-65
2022/10/23 01:17:42;;;;;;;61.58;32.85;;;13.30;99.90;;;;;;5053400;28;20071;-65
2022/10/23 01:20:31;;;;;;;52.00;30.55;;;13.20;99.90;;;;;;5053355;28;20025;-65
2022/10/23 01:23:31;;;;;;;46.17;27.10;;;13.20;99.90;;;;;;5054830;28;20042;-65
2022/10/23 01:26:00;;;;;;;;;;;13.10;99.90;;;;;;5053756;28;20039;-65
2022/10/23 01:28:46;;;;;;;45.88;26.45;;;13.00;99.90;;;;;;5053309;28;19958;-65
2022/10/23 01:31:17;;;;;;;48.05;27.88;;;13.00;99.90;;;;;;5053219;28;20025;-65
2022/10/23 01:33:50;;;;;;;49.33;28.77;;;13.00;99.90;;;;;;5053095;28;20036;-65
2022/10/23 01:36:26;;;;;;;46.72;28.92;;;13.00;99.90;;;;;;5054350;28;20040;-66
2022/10/23 01:39:07;;;;;;;48.40;28.05;;;12.90;99.90;;;;;;5053120;28;20074;-65
2022/10/23 01:41:54;;;;;;;49.47;27.63;;;12.90;99.90;;;;;;5053153;28;20055;-65
2022/10/23 01:44:35;;;;;;;46.38;27.92;;;12.80;99.90;;;;;;5053124;28;20360;-65
2022/10/23 01:47:02;;;;;;;49.25;26.83;;;12.70;99.90;;;;;;5052904;28;20394;-65
2022/10/23 01:49:32;;;;;;;38.85;25.75;;;12.70;99.90;;;;;;5053059;28;20033;-65
2022/10/23 01:52:01;;;;;;;40.33;25.02;;;12.80;99.90;;;;;;5054169;28;20029;-66
2022/10/23 01:54:32;;;;;;;40.17;25.52;;;12.80;99.90;;;;;;5057121;28;20397;-65
2022/10/23 01:57:01;;;;;;;39.38;25.05;;;12.60;99.90;;;;;;5056860;28;20033;-65
2022/10/23 01:59:34;;;;;;;;;;;12.60;99.90;;;;;;5057475;28;20025;-65
2022/10/23 02:02:01;;;;;;;47.03;26.13;;;12.50;99.90;;;;;;5057046;28;19909;-65
2022/10/23 02:04:37;;;;;;;39.42;24.95;;;12.40;99.90;;;;;;5057035;28;20037;-65
2022/10/23 02:07:04;;;;;;;46.03;25.75;;;12.40;99.90;;;;;;5057056;28;20036;-65
2022/10/23 02:09:31;;;;;;;45.38;26.27;;;12.40;99.90;;;;;;5056903;28;20090;-65
2022/10/23 02:12:08;;;;;;;44.03;27.50;;;12.40;99.90;;;;;;5058295;28;20040;-66
2022/10/23 02:14:34;;;;;;;36.83;24.73;;;12.30;99.90;;;;;;5058124;28;20032;-65
2022/10/23 02:17:25;;;;;;;41.95;26.10;;;12.40;99.90;;;;;;5056634;28;20035;-65
2022/10/23 02:20:01;;;;;;;49.95;28.73;;;12.40;99.90;;;;;;5058118;28;20024;-65
2022/10/23 02:22:35;;;;;;;52.70;29.50;;;12.40;99.90;;;;;;5057800;28;20059;-65
2022/10/23 02:25:15;;;;;;;46.83;27.38;;;12.40;99.90;;;;;;5056510;28;20379;-65
2022/10/23 02:27:47;;;;;;;46.00;26.60;;;12.40;99.90;;;;;;5056610;28;20033;-66
2022/10/23 02:30:17;;;;;;;42.05;25.58;;;12.30;99.90;;;;;;5056555;28;20040;-65
2022/10/23 02:32:53;;;;;;;39.05;24.40;;;12.30;99.90;;;;;;5057594;28;20107;-66
2022/10/23 02:35:24;;;;;;;45.65;26.02;;;12.30;99.90;;;;;;5056365;28;20033;-66
2022/10/23 02:38:00;;;;;;;45.10;25.60;;;12.20;99.90;;;;;;5056286;28;20037;-65
2022/10/23 02:40:43;;;;;;;42.88;26.35;;;12.20;99.90;;;;;;5056324;28;20433;-65
2022/10/23 02:43:31;;;;;;;44.88;26.85;;;12.20;99.90;;;;;;5056382;28;20505;-65
2022/10/23 02:46:07;;;;;;;51.90;29.10;;;12.20;99.90;;;;;;5056184;28;20394;-65
2022/10/23 02:48:43;;;;;;;56.63;30.83;;;12.10;99.90;;;;;;5056193;28;20039;-65
2022/10/23 02:51:25;;;;;;;48.90;27.80;;;12.10;99.90;;;;;;5057531;28;20386;-65
2022/10/23 02:54:00;;;;;;;46.70;27.88;;;12.10;99.90;;;;;;5056053;28;20049;-65
2022/10/23 02:56:48;;;;;;;48.60;27.08;;;12.00;99.90;;;;;;5055994;28;20478;-65
2022/10/23 02:59:38;;;;;;;47.40;27.38;;;12.00;99.90;;;;;;5055821;28;20045;-65
2022/10/23 03:02:25;;;;;;;45.15;27.90;;;11.90;99.90;;;;;;5055854;28;20035;-66
2022/10/23 03:04:53;;;;;;;48.08;26.17;;;11.90;99.90;;;;;;5055143;28;20029;-65
2022/10/23 03:07:19;;;;;;;40.25;27.08;;;12.00;99.90;;;;;;5055945;28;20099;-65
2022/10/23 03:09:45;;;;;;;46.20;27.60;;;11.90;99.90;;;;;;5057049;28;20029;-65
2022/10/23 03:12:13;;;;;;;43.17;25.63;;;12.00;99.90;;;;;;5055733;28;20490;-65
2022/10/23 03:14:39;;;;;;;44.08;27.27;;;11.90;99.90;;;;;;5055608;28;20029;-65
2022/10/23 03:17:04;;;;;;;43.40;27.98;;;12.00;99.90;;;;;;5056952;28;20116;-65
2022/10/23 03:19:30;;;;;;;45.85;28.48;;;12.00;99.90;;;;;;5055693;28;20104;-65
2022/10/23 03:21:57;;;;;;;46.00;26.10;;;11.90;99.90;;;;;;5055403;28;20033;-65
2022/10/23 03:24:24;;;;;;;46.20;26.23;;;12.00;99.90;;;;;;5055440;28;20547;-65
2022/10/23 03:26:51;;;;;;;38.60;24.38;;;11.90;99.90;;;;;;5055446;28;20060;-65
2022/10/23 03:29:23;;;;;;;44.58;27.00;;;11.90;99.90;;;;;;5055473;28;20530;-65
2022/10/23 03:31:49;;;;;;;49.08;29.17;;;11.90;99.90;;;;;;5056598;28;20036;-65
2022/10/23 03:34:15;;;;;;;56.25;30.85;;;11.90;99.90;;;;;;5056336;28;20025;-65
2022/10/23 03:36:42;;;;;;;50.63;30.13;;;11.90;99.90;;;;;;5055102;28;20025;-65
2022/10/23 03:39:09;;;;;;;56.63;30.77;;;12.00;99.90;;;;;;5056516;28;20021;-65
2022/10/23 03:41:35;;;;;;;47.65;29.65;;;12.00;99.90;;;;;;5056404;28;20363;-65
2022/10/23 03:44:01;;;;;;;56.85;31.70;;;11.90;99.90;;;;;;5055128;28;20482;-65
2022/10/23 03:46:27;;;;;;;57.70;31.88;;;11.90;99.90;;;;;;5055136;28;20098;-65
2022/10/23 03:48:57;;;;;;;53.60;31.25;;;11.90;99.90;;;;;;5055042;28;20036;-65
2022/10/23 03:51:23;;;;;;;50.40;28.10;;;11.90;99.90;;;;;;5054961;28;20032;-66
2022/10/23 03:53:49;;;;;;;55.08;29.55;;;11.90;99.90;;;;;;5056291;28;20051;-66
2022/10/23 03:56:15;;;;;;;48.97;29.98;;;12.00;99.90;;;;;;5054742;28;20037;-66
2022/10/23 03:58:41;;;;;;;55.15;29.23;;;12.00;99.90;;;;;;5038202;28;20080;-66
2022/10/23 04:01:07;;;;;;;51.30;30.58;;;12.00;99.90;;;;;;5054821;28;20057;-65
2022/10/23 04:03:35;;;;;;;73.53;35.88;;;12.00;99.90;;;;;;5054735;28;20541;-65
2022/10/23 04:06:01;;;;;;;61.08;32.40;;;12.10;99.90;;;;;;5054691;28;20036;-66
2022/10/23 04:08:26;;;;;;;55.63;31.00;;;12.10;99.90;;;;;;5054780;28;20040;-65
2022/10/23 04:10:54;;;;;;;48.05;28.13;;;12.00;99.90;;;;;;5054420;28;20029;-65
2022/10/23 04:13:30;;;;;;;48.85;27.02;;;11.80;99.90;;;;;;5054629;28;20037;-65
2022/10/23 04:15:56;;;;;;;57.90;28.85;;;11.70;99.90;;;;;;5053395;28;20441;-65
2022/10/23 04:18:22;;;;;;;49.60;28.65;;;11.70;99.90;;;;;;5054451;28;20025;-66
2022/10/23 04:20:49;;;;;;;57.60;33.22;;;11.70;99.90;;;;;;5054491;28;20497;-66
2022/10/23 04:23:16;;;;;;;68.97;38.75;;;11.70;99.90;;;;;;5055489;28;20473;-65
2022/10/23 04:25:43;;;;;;;58.05;32.15;;;11.70;99.90;;;;;;5054256;28;20068;-65
2022/10/23 04:28:09;;;;;;;50.80;27.73;;;11.80;99.90;;;;;;5055612;28;20065;-65
2022/10/23 04:30:37;;;;;;;49.90;27.52;;;11.70;99.90;;;;;;5054312;28;20029;-65
2022/10/23 04:33:04;;;;;;;49.72;28.80;;;11.60;99.90;;;;;;5055312;28;20025;-65
2022/10/23 04:35:30;;;;;;;61.10;31.27;;;11.60;99.90;;;;;;5054029;28;20445;-66
2022/10/23 04:37:56;;;;;;;57.17;31.95;;;11.50;99.90;;;;;;5053948;28;20017;-65
2022/10/23 04:40:22;;;;;;;55.38;30.42;;;11.50;99.90;;;;;;5053973;28;20026;-66
2022/10/23 04:42:51;;;;;;;46.58;26.92;;;11.50;99.90;;;;;;5054045;28;20159;-65
2022/10/23 04:45:17;;;;;;;45.55;25.75;;;11.50;99.90;;;;;;5053963;28;20498;-65
2022/10/23 04:47:43;;;;;;;51.92;26.80;;;11.50;99.90;;;;;;5053956;28;20048;-65
2022/10/23 04:50:09;;;;;;;48.33;27.90;;;11.50;99.90;;;;;;5055256;28;20029;-66
2022/10/23 04:52:56;;;;;;;47.58;27.27;;;11.40;99.90;;;;;;5050987;28;20067;-66
2022/10/23 04:55:49;;;;;;;53.22;29.98;;;11.50;99.90;;;;;;5054181;28;20044;-66
2022/10/23 04:58:22;;;;;;;46.17;26.35;;;11.40;99.90;;;;;;5053595;28;20136;-66
2022/10/23 05:00:50;;;;;;;49.70;28.60;;;11.40;99.90;;;;;;5053375;28;20466;-65
2022/10/23 05:03:24;;;;;;;47.45;24.67;;;11.40;99.90;;;;;;5053651;28;20021;-65
2022/10/23 05:05:53;;;;;;;40.42;22.70;;;11.50;99.90;;;;;;5053698;28;20025;-65
2022/10/23 05:08:55;;;;;;;42.70;23.30;;;11.50;99.90;;;;;;5032523;28;20414;-66
2022/10/23 05:11:59;;;;;;;36.45;22.02;;;11.60;99.90;;;;;;5045015;28;20033;-65
2022/10/23 05:14:25;;;;;;;39.67;22.80;;;11.60;99.90;;;;;;5053492;28;20033;-66
2022/10/23 05:16:56;;;;;;;35.00;21.70;;;11.60;99.90;;;;;;5053405;28;20043;-66
2022/10/23 05:19:46;;;;;;;36.58;19.75;;;11.60;99.90;;;;;;5053342;28;20029;-66
2022/10/23 05:22:13;;;;;;;34.42;21.70;;;11.60;99.90;;;;;;5054549;28;20021;-65
2022/10/23 05:24:49;;;;;;;34.25;21.77;;;11.70;99.90;;;;;;5053366;28;20036;-65
2022/10/23 05:27:18;;;;;;;41.60;23.08;;;11.70;99.90;;;;;;5053000;28;20537;-65
2022/10/23 05:29:44;;;;;;;38.92;23.88;;;11.80;99.90;;;;;;5053262;28;20048;-66
2022/10/23 05:32:13;;;;;;;37.72;22.98;;;11.90;99.90;;;;;;5053013;28;20029;-65
2022/10/23 05:34:41;;;;;;;39.83;24.65;;;11.90;99.90;;;;;;5053307;28;20029;-65
2022/10/23 05:37:12;;;;;;;39.25;23.60;;;11.80;99.90;;;;;;5053022;28;20453;-65
2022/10/23 05:39:39;;;;;;;;;;;11.80;99.90;;;;;;5053618;28;20028;-65
2022/10/23 05:42:09;;;;;;;46.05;29.05;;;11.90;99.90;;;;;;5053185;28;20274;-65
2022/10/23 05:44:37;;;;;;;46.97;28.95;;;11.90;99.90;;;;;;5053020;28;20037;-66
2022/10/23 05:47:25;;;;;;;54.30;30.90;;;12.00;99.90;;;;;;5054112;28;20040;-66
2022/10/23 05:49:54;;;;;;;56.83;30.77;;;12.10;99.90;;;;;;5053267;28;20052;-65
2022/10/23 05:52:38;;;;;;;61.40;32.85;;;12.10;99.90;;;;;;5054406;28;20033;-66
2022/10/23 05:55:15;;;;;;;49.50;29.45;;;12.10;99.90;;;;;;5052994;28;20116;-65
2022/10/23 05:57:44;;;;;;;53.00;32.22;;;12.20;99.90;;;;;;5054149;28;20442;-66
2022/10/23 06:00:12;;;;;;;51.70;30.42;;;12.30;99.90;;;;;;5052949;28;20535;-66
2022/10/23 06:02:40;;;;;;;58.45;32.30;;;12.40;99.90;;;;;;5054472;28;20136;-66
2022/10/23 06:05:27;;;;;;;64.45;32.60;;;12.50;99.90;;;;;;5052889;28;20108;-65
2022/10/23 06:08:19;;;;;;;69.65;36.13;;;12.60;99.90;;;;;;5052888;28;20561;-65
2022/10/23 06:10:48;;;;;;;58.83;31.58;;;12.80;99.90;;;;;;5052862;28;20363;-66
2022/10/23 06:13:14;;;;;;;62.08;32.22;;;12.90;99.90;;;;;;5052787;28;20079;-65
2022/10/23 06:15:40;;;;;;;68.45;32.88;;;13.00;99.90;;;;;;5052652;28;20076;-65
2022/10/23 06:18:17;;;;;;;54.97;30.13;;;13.10;99.90;;;;;;5052769;28;20063;-66
2022/10/23 06:21:05;;;;;;;53.17;31.85;;;13.10;99.90;;;;;;5052783;28;20429;-65
2022/10/23 06:23:32;;;;;;;61.78;33.30;;;13.10;99.90;;;;;;5054023;28;20051;-65
2022/10/23 06:25:59;;;;;;;72.60;34.50;;;13.10;99.90;;;;;;5053942;28;20044;-65
2022/10/23 06:28:33;;;;;;;64.72;34.58;;;13.10;99.90;;;;;;5052699;28;20032;-65
2022/10/23 06:31:02;;;;;;;66.45;34.88;;;13.10;99.90;;;;;;5052627;28;20040;-65
2022/10/23 06:33:28;;;;;;;65.60;32.45;;;13.20;99.90;;;;;;5053803;28;20111;-65
2022/10/23 06:35:55;;;;;;;65.55;32.92;;;13.30;99.90;;;;;;5052328;28;20120;-65
2022/10/23 06:38:21;;;;;;;68.70;34.72;;;13.30;99.90;;;;;;5053894;28;20033;-65
2022/10/23 06:40:54;;;;;;;66.90;33.25;;;13.40;99.90;;;;;;5056243;28;20029;-65
2022/10/23 06:43:27;;;;;;;77.80;35.97;;;13.30;99.90;;;;;;5056276;28;20037;-65
2022/10/23 06:46:18;;;;;;;78.07;34.30;;;13.40;99.90;;;;;;5054272;28;20387;-65
2022/10/23 06:49:19;;;;;;;68.25;34.17;;;13.40;99.90;;;;;;5034968;28;20407;-65
2022/10/23 06:51:47;;;;;;;79.10;36.70;;;13.40;99.90;;;;;;5048288;28;20036;-65
2022/10/23 06:54:14;;;;;;;76.97;34.80;;;13.50;99.90;;;;;;5056116;28;20075;-65
2022/10/23 06:56:49;;;;;;;93.45;37.80;;;13.50;99.90;;;;;;5057277;28;20037;-65
2022/10/23 06:59:20;;;;;;;88.40;36.38;;;13.60;99.90;;;;;;5056004;28;20041;-65
2022/10/23 07:01:49;;;;;;;88.15;39.22;;;13.70;99.90;;;;;;5055854;28;20060;-66
2022/10/23 07:04:15;;;;;;;87.40;38.97;;;13.90;99.90;;;;;;5055897;28;20063;-66
2022/10/23 07:06:42;;;;;;;86.70;40.60;;;13.90;99.90;;;;;;5055952;28;20087;-66
2022/10/23 07:09:09;;;;;;;93.05;39.20;;;14.00;99.90;;;;;;5055783;28;20489;-66
2022/10/23 07:11:50;;;;;;;78.82;38.03;;;14.00;99.90;;;;;;5057023;28;20044;-66
2022/10/23 07:14:17;;;;;;;81.88;36.05;;;14.10;99.90;;;;;;5055656;28;20120;-66
2022/10/23 07:16:43;;;;;;;85.55;37.50;;;14.20;99.90;;;;;;5056991;28;20080;-66
2022/10/23 07:19:09;;;;;;;73.55;36.63;;;14.40;99.90;;;;;;5055601;28;20466;-65
2022/10/23 07:22:01;;;;;;;74.65;35.30;;;14.40;99.90;;;;;;5055570;28;20536;-66
2022/10/23 07:24:37;;;;;;;80.40;38.22;;;14.50;99.90;;;;;;5056802;28;20037;-66
2022/10/23 07:27:12;;;;;;;78.85;36.40;;;14.60;99.90;;;;;;5055571;28;20061;-66
2022/10/23 07:29:39;;;;;;;74.13;36.25;;;14.60;99.90;;;;;;5055546;28;20116;-65
2022/10/23 07:32:05;;;;;;;72.53;36.03;;;14.70;99.90;;;;;;5055377;28;20033;-66
2022/10/23 07:34:44;;;;;;;79.95;35.92;;;14.90;99.90;;;;;;5056698;28;20045;-66
2022/10/23 07:37:24;;;;;;;;;;;15.00;99.90;;;;;;5055685;28;20481;-66
2022/10/23 07:39:50;;;;;;;65.63;34.70;;;15.10;99.90;;;;;;5055233;28;19987;-66
2022/10/23 07:42:16;;;;;;;56.08;34.25;;;15.40;99.90;;;;;;5055103;28;20036;-66
2022/10/23 07:44:42;;;;;;;68.13;35.22;;;15.30;99.90;;;;;;5055184;28;20032;-66
2022/10/23 07:47:09;;;;;;;67.72;36.13;;;15.40;99.90;;;;;;5055150;28;20021;-66
2022/10/23 07:49:35;;;;;;;63.22;36.72;;;15.30;99.90;;;;;;5054698;28;20033;-66
2022/10/23 07:52:03;;;;;;;67.30;36.05;;;15.20;99.90;;;;;;5054929;28;20066;-66
2022/10/23 07:54:39;;;;;;;67.60;36.55;;;15.40;99.90;;;;;;5055001;28;20029;-66
2022/10/23 07:57:17;;;;;;;59.15;32.85;;;15.80;99.90;;;;;;5054714;28;20094;-66
2022/10/23 07:59:55;;;;;;;52.17;29.80;;;16.20;99.90;;;;;;5054790;28;20025;-66
2022/10/23 08:02:23;;;;;;;55.03;31.95;;;16.60;99.90;;;;;;5054871;28;20384;-66
2022/10/23 08:04:49;;;;;;;52.30;31.65;;;17.00;99.90;;;;;;5056037;28;20025;-66
2022/10/23 08:07:24;;;;;;;55.58;32.35;;;17.20;99.90;;;;;;5054631;28;20029;-66
2022/10/23 08:09:54;;;;;;;59.35;31.70;;;17.80;99.90;;;;;;5054751;28;20037;-67
2022/10/23 08:12:19;;;;;;;48.58;29.83;;;18.70;99.90;;;;;;5054561;28;20039;-66
2022/10/23 08:14:45;;;;;;;45.38;29.15;;;19.00;99.90;;;;;;5054498;28;20068;-67
2022/10/23 08:17:11;;;;;;;54.60;30.70;;;19.70;99.90;;;;;;5055847;28;20029;-67
2022/10/23 08:19:56;;;;;;;54.35;30.77;;;20.20;99.90;;;;;;5055732;28;20040;-67
2022/10/23 08:22:24;;;;;;;54.20;31.10;;;21.30;99.90;;;;;;5054548;28;20052;-67
2022/10/23 08:24:50;;;;;;;52.28;29.95;;;21.90;97.20;;;;;;5054388;28;20466;-67
2022/10/23 08:27:16;;;;;;;48.58;28.98;;;21.90;96.80;;;;;;5054290;28;20455;-67
2022/10/23 08:29:45;;;;;;;53.78;31.35;;;22.30;95.30;;;;;;5054422;28;20033;-66
2022/10/23 08:32:11;;;;;;;46.80;28.67;;;22.30;94.10;;;;;;5037653;28;20086;-67
2022/10/23 08:34:57;;;;;;;49.88;30.58;;;22.80;92.80;;;;;;5055350;28;20099;-67
2022/10/23 08:37:25;;;;;;;56.88;30.77;;;23.30;92.50;;;;;;5053905;28;20036;-67
2022/10/23 08:39:51;;;;;;;55.60;31.58;;;23.80;90.70;;;;;;5054150;28;20033;-67
2022/10/23 08:42:25;;;;;;;51.53;30.45;;;24.10;86.60;;;;;;5054108;28;20402;-67
2022/10/23 08:45:02;;;;;;;60.13;32.83;;;24.00;86.60;;;;;;5053933;28;20047;-68
2022/10/23 08:47:39;;;;;;;48.88;29.90;;;24.10;85.60;;;;;;5053969;28;20113;-67
2022/10/23 08:50:24;;;;;;;55.60;32.38;;;24.10;86.00;;;;;;5055172;28;20073;-67
2022/10/23 08:52:59;;;;;;;55.95;33.40;;;23.90;85.90;;;;;;5055208;28;20029;-68
2022/10/23 08:55:31;;;;;;;61.03;31.40;;;24.40;83.20;;;;;;5055051;28;20032;-67
2022/10/23 08:58:00;;;;;;;49.28;31.83;;;24.70;81.90;;;;;;5054991;28;20049;-67
2022/10/23 09:00:26;;;;;;;50.00;30.02;;;24.90;79.60;;;;;;5054988;28;20025;-67
2022/10/23 09:02:54;;;;;;;52.40;30.88;;;25.20;77.30;;;;;;5054432;28;20351;-67
2022/10/23 09:05:49;;;;;;;47.58;28.55;;;25.00;80.00;;;;;;5054979;28;20032;-67
2022/10/23 09:08:18;;;;;;;47.60;29.35;;;24.90;76.80;;;;;;5045804;28;20037;-67
2022/10/23 09:11:09;;;;;;;46.40;27.90;;;24.90;76.20;;;;;;5054938;28;20031;-67
2022/10/23 09:13:40;;;;;;;;;;;25.10;78.20;;;;;;5055291;28;20424;-67
2022/10/23 09:16:46;;;;;;;39.72;26.08;;;25.20;77.00;;;;;;5054751;28;19912;-67
2022/10/23 09:19:16;;;;;;;44.38;27.83;;;25.70;75.00;;;;;;5054750;28;20029;-67
2022/10/23 09:21:45;;;;;;;43.30;26.73;;;26.20;74.50;;;;;;5054692;28;20025;-67
2022/10/23 09:24:16;;;;;;;48.85;27.27;;;26.70;72.20;;;;;;5054589;28;20021;-67
2022/10/23 09:26:49;;;;;;;41.25;27.60;;;26.70;72.90;;;;;;5054871;28;20039;-67
2022/10/23 09:29:22;;;;;;;39.00;26.98;;;26.80;71.60;;;;;;5054484;28;20033;-67
2022/10/23 09:31:52;;;;;;;49.72;28.83;;;27.30;69.80;;;;;;5054342;28;20060;-67
2022/10/23 09:34:21;;;;;;;45.70;28.58;;;26.90;68.30;;;;;;5054343;28;20029;-67
2022/10/23 09:37:15;;;;;;;43.55;27.33;;;26.80;70.30;;;;;;5054407;28;20148;-67
2022/10/23 09:39:40;;;;;;;40.22;26.67;;;27.00;69.30;;;;;;5048744;28;20074;-67
2022/10/23 09:42:33;;;;;;;40.70;25.73;;;27.20;67.40;;;;;;5054396;28;20108;-67
2022/10/23 09:44:59;;;;;;;41.63;26.45;;;26.90;68.70;;;;;;5052218;28;20059;-67
2022/10/23 09:47:27;;;;;;;42.03;25.15;;;26.60;69.30;;;;;;5053091;28;20103;-67
2022/10/23 09:49:56;;;;;;;40.63;25.52;;;26.60;70.70;;;;;;5054462;28;20471;-67
2022/10/23 09:52:33;;;;;;;43.17;25.92;;;26.40;70.80;;;;;;5054296;28;20493;-67
2022/10/23 09:55:01;;;;;;;42.45;25.42;;;26.00;72.00;;;;;;5054342;28;20033;-67
2022/10/23 09:57:39;;;;;;;43.78;24.50;;;25.70;72.20;;;;;;5054245;28;20045;-67
2022/10/23 10:00:21;;;;;;;38.45;23.60;;;25.70;72.90;;;;;;5054222;28;20025;-67
2022/10/23 10:03:02;;;;;;;36.65;21.95;;;25.80;72.10;;;;;;5054182;28;20021;-67
2022/10/23 10:05:40;;;;;;;36.08;21.80;;;26.00;72.80;;;;;;5053041;28;20029;-67
2022/10/23 10:08:13;;;;;;;34.95;21.77;;;25.90;72.60;;;;;;5052804;28;20029;-67
2022/10/23 10:10:49;;;;;;;35.33;21.98;;;25.70;73.60;;;;;;5054113;28;20490;-67
2022/10/23 10:13:35;;;;;;;31.13;21.35;;;25.80;73.00;;;;;;5055585;28;20021;-66
2022/10/23 10:16:33;;;;;;;35.88;20.70;;;26.10;73.60;;;;;;5058081;28;20342;-67
2022/10/23 10:19:30;;;;;;;30.80;21.17;;;26.10;73.50;;;;;;5043647;28;20063;-67
2022/10/23 10:22:08;;;;;;;30.15;20.55;;;26.30;71.60;;;;;;5058017;28;20029;-67
2022/10/23 10:24:47;;;;;;;29.52;18.75;;;26.60;72.10;;;;;;5057923;28;20538;-67
2022/10/23 10:27:30;;;;;;;31.75;19.88;;;27.10;69.80;;;;;;5058113;28;20029;-67
2022/10/23 10:30:09;;;;;;;34.72;20.10;;;27.00;69.30;;;;;;5057786;28;20029;-67
2022/10/23 10:32:45;;;;;;;28.90;20.77;;;27.70;69.20;;;;;;5057635;28;20033;-67
2022/10/23 10:35:32;;;;;;;29.67;19.13;;;27.50;68.20;;;;;;5057705;28;20043;-67
2022/10/23 10:38:09;;;;;;;29.40;20.65;;;27.60;66.30;;;;;;5057654;28;20049;-67
2022/10/23 10:40:45;;;;;;;32.40;20.08;;;26.50;68.20;;;;;;5057591;28;20083;-67
2022/10/23 10:43:20;;;;;;;30.83;17.95;;;27.10;71.90;;;;;;5057662;28;20035;-67
2022/10/23 10:45:47;;;;;;;25.20;17.58;;;27.90;67.10;;;;;;5057565;28;20060;-67
2022/10/23 10:48:43;;;;;;;28.52;17.65;;;28.50;66.10;;;;;;5057568;28;20799;-67
2022/10/23 10:51:30;;;;;;;31.02;20.17;;;28.30;63.10;;;;;;5057511;28;20040;-67
2022/10/23 10:54:19;;;;;;;26.60;18.02;;;28.10;64.20;;;;;;5057418;28;20036;-67
2022/10/23 10:56:46;;;;;;;24.48;17.05;;;28.60;65.30;;;;;;5051915;28;20037;-67
2022/10/23 10:59:26;;;;;;;27.63;19.02;;;29.00;63.40;;;;;;5057112;28;20044;-67
2022/10/23 11:02:15;;;;;;;30.35;19.75;;;28.80;62.70;;;;;;5057266;28;20059;-67
2022/10/23 11:05:10;;;;;;;29.23;19.88;;;28.90;62.70;;;;;;5057304;28;20474;-67
2022/10/23 11:07:51;;;;;;;34.13;20.17;;;29.10;61.60;;;;;;5057181;28;20035;-67
2022/10/23 11:10:18;;;;;;;29.58;19.48;;;29.20;63.40;;;;;;5057082;28;20037;-67
2022/10/23 11:12:46;;;;;;;28.40;18.17;;;29.50;60.60;;;;;;5057131;28;20486;-67
2022/10/23 11:15:21;;;;;;;25.30;16.42;;;29.50;61.90;;;;;;5057054;28;20482;-67
2022/10/23 11:17:57;;;;;;;20.85;13.60;;;29.90;58.60;;;;;;5056949;28;20067;-67
2022/10/23 11:20:54;;;;;;;25.08;17.60;;;29.80;55.80;;;;;;5056975;28;20116;-68
2022/10/23 11:23:38;;;;;;;24.02;16.58;;;29.00;58.50;;;;;;5056775;28;20544;-67
2022/10/23 11:26:19;;;;;;;29.13;17.35;;;29.10;58.80;;;;;;5056190;28;20051;-68
2022/10/23 11:29:22;;;;;;;24.45;16.60;;;29.10;58.10;;;;;;5056866;28;20100;-68
2022/10/23 11:32:13;;;;;;;23.80;13.27;;;29.50;57.10;;;;;;5056725;28;20029;-68
2022/10/23 11:34:55;;;;;;;21.73;13.43;;;29.50;55.50;;;;;;5056621;28;20482;-67
2022/10/23 11:37:23;;;;;;;24.23;13.38;;;29.70;55.80;;;;;;5056464;28;20032;-67
2022/10/23 11:40:07;;;;;;;22.17;13.05;;;29.70;57.40;;;;;;5056584;28;20059;-67
2022/10/23 11:42:53;;;;;;;19.77;10.40;;;29.50;55.30;;;;;;5056596;28;20045;-67
2022/10/23 11:45:25;;;;;;;14.63;9.52;;;29.70;53.80;;;;;;5056514;28;20470;-67
2022/10/23 11:48:01;;;;;;;17.13;10.60;;;30.00;52.40;;;;;;5056488;28;20283;-67
2022/10/23 11:50:50;;;;;;;17.90;10.20;;;29.70;52.20;;;;;;5056358;28;20086;-67
2022/10/23 11:53:45;;;;;;;16.83;10.45;;;29.40;53.10;;;;;;5056316;28;20029;-67
2022/10/23 11:56:11;;;;;;;16.60;9.43;;;29.00;53.80;;;;;;5047187;28;20065;-67
2022/10/23 11:58:44;;;;;;;18.92;10.13;;;29.40;55.20;;;;;;5055987;28;20041;-67
2022/10/23 12:01:32;;;;;;;16.63;9.10;;;29.30;56.00;;;;;;5056174;28;20485;-67
2022/10/23 12:04:16;;;;;;;15.05;8.95;;;29.30;54.30;;;;;;5055988;28;20025;-67
2022/10/23 12:06:49;;;;;;;17.38;8.52;;;29.40;55.50;;;;;;5056009;28;20033;-67
2022/10/23 12:09:24;;;;;;;19.25;9.13;;;29.90;52.00;;;;;;5055878;28;20029;-67
2022/10/23 12:12:07;;;;;;;22.52;13.90;;;30.10;52.40;;;;;;5055850;28;20060;-68
2022/10/23 12:14:41;;;;;;;19.20;8.07;;;28.70;52.10;;;;;;5055992;28;20044;-67
2022/10/23 12:17:23;;;;;;;18.58;8.60;;;29.40;53.40;;;;;;5054593;28;20112;-68
2022/10/23 12:20:18;;;;;;;15.07;7.10;;;29.70;52.10;;;;;;5055940;28;20028;-68
2022/10/23 12:22:57;;;;;;;19.85;7.95;;;30.00;50.60;;;;;;5055720;28;20039;-67
2022/10/23 12:25:52;;;;;;;21.25;8.48;;;30.20;50.10;;;;;;5055936;28;20060;-67
2022/10/23 12:28:30;;;;;;;14.73;8.40;;;29.70;51.20;;;;;;5055684;28;20037;-67
2022/10/23 12:31:26;;;;;;;14.25;6.85;;;29.50;50.50;;;;;;5054130;28;20032;-67
2022/10/23 12:33:55;;;;;;;18.10;8.02;;;29.30;49.60;;;;;;5055608;28;20021;-67
2022/10/23 12:36:27;;;;;;;13.65;6.38;;;29.90;50.10;;;;;;5054462;28;20035;-67
2022/10/23 12:38:57;;;;;;;20.40;8.23;;;30.50;49.90;;;;;;5055486;28;20036;-67
2022/10/23 12:41:25;;;;;;;15.13;8.00;;;30.90;47.90;;;;;;5055335;28;20081;-67
2022/10/23 12:44:03;;;;;;;18.10;7.80;;;30.40;50.20;;;;;;5055374;28;20402;-68
2022/10/23 12:46:34;;;;;;;15.63;6.93;;;30.50;48.80;;;;;;5055281;28;20478;-68
2022/10/23 12:49:15;;;;;;;12.93;6.85;;;30.40;48.30;;;;;;5053769;28;20082;-68
2022/10/23 12:51:41;;;;;;;19.95;7.30;;;30.60;48.60;;;;;;5055152;28;20041;-67
2022/10/23 12:54:18;;;;;;;12.38;6.90;;;30.40;48.70;;;;;;5055525;28;20040;-68
2022/10/23 12:56:45;;;;;;;19.15;7.57;;;30.00;48.00;;;;;;5055032;28;20033;-67
2022/10/23 12:59:18;;;;;;;15.25;6.72;;;29.50;50.80;;;;;;5054800;28;20080;-67
2022/10/23 13:01:45;;;;;;;15.75;6.95;;;29.30;49.70;;;;;;5055106;28;20116;-67